Time;durP1;ratioP1;P1;durP2;ratioP2;P2;SDS_P1;SDS_P2;PMS_P1;PMS_P2;Temp;Humidity;BMP_temperature;BMP_pressure;BME280_temperature;BME280_humidity;BME280_pressure;Samples;Min_cycle;Max_cycle;Signal;HPM_P1;HPM_P2
2021/11/19 00:02:16;;;;;;;19.13;10.17;;;8.40;99.90;;;;;;5040344;28;20231;-68
2021/11/19 00:04:43;;;;;;;15.57;9.40;;;8.40;99.90;;;;;;5030995;28;20210;-68
2021/11/19 00:07:11;;;;;;;14.90;9.60;;;8.40;99.90;;;;;;5045084;28;20216;-68
2021/11/19 00:09:40;;;;;;;13.87;9.20;;;8.40;99.90;;;;;;5050692;28;20225;-68
2021/11/19 00:12:08;;;;;;;13.97;9.27;;;8.40;99.90;;;;;;5045610;28;20802;-68
2021/11/19 00:14:35;;;;;;;16.73;10.10;;;8.40;99.90;;;;;;5033043;28;20690;-69
2021/11/19 00:17:06;;;;;;;14.87;9.33;;;8.30;99.90;;;;;;5042815;28;20207;-69
2021/11/19 00:19:34;;;;;;;17.03;9.60;;;8.30;99.90;;;;;;5033880;28;20576;-68
2021/11/19 00:22:01;;;;;;;17.60;10.37;;;8.30;99.90;;;;;;5031104;28;20230;-69
2021/11/19 00:24:29;;;;;;;13.27;9.17;;;8.30;99.90;;;;;;5039606;28;20203;-70
2021/11/19 00:26:57;;;;;;;17.23;10.50;;;8.30;99.90;;;;;;5031587;28;20234;-68
2021/11/19 00:29:25;;;;;;;15.33;9.73;;;8.20;99.90;;;;;;5031179;28;20207;-68
2021/11/19 00:31:52;;;;;;;14.00;8.87;;;8.20;99.90;;;;;;5030713;28;20198;-68
2021/11/19 00:34:19;;;;;;;15.33;9.17;;;8.30;99.90;;;;;;5031077;28;20858;-68
2021/11/19 00:36:46;;;;;;;15.37;9.67;;;8.20;99.90;;;;;;5032263;28;20216;-68
2021/11/19 00:39:18;;;;;;;16.47;9.30;;;8.20;99.90;;;;;;5032663;28;20578;-68
2021/11/19 00:41:46;;;;;;;14.17;8.83;;;8.10;99.90;;;;;;5037711;28;20220;-69
2021/11/19 00:44:15;;;;;;;12.43;9.93;;;8.20;99.90;;;;;;5036768;28;20206;-68
2021/11/19 00:46:44;;;;;;;12.80;8.50;;;8.10;99.90;;;;;;5042562;28;20647;-68
2021/11/19 00:49:11;;;;;;;16.23;9.73;;;8.20;99.90;;;;;;5039596;28;20210;-68
2021/11/19 00:51:41;;;;;;;16.47;9.70;;;8.10;99.90;;;;;;5034002;28;20236;-68
2021/11/19 00:54:08;;;;;;;13.53;8.77;;;8.10;99.90;;;;;;5042825;28;20208;-70
2021/11/19 00:56:40;;;;;;;11.00;8.63;;;8.20;99.90;;;;;;5035159;28;20232;-68
2021/11/19 00:59:08;;;;;;;16.27;9.27;;;8.10;99.90;;;;;;5035977;28;20214;-68
2021/11/19 01:01:40;;;;;;;10.30;8.63;;;8.10;99.90;;;;;;5037156;28;20226;-67
2021/11/19 01:04:08;;;;;;;12.77;9.27;;;8.10;99.90;;;;;;5031882;28;20221;-69
2021/11/19 01:06:35;;;;;;;16.63;9.27;;;8.10;99.90;;;;;;5042922;28;20206;-67
2021/11/19 01:09:06;;;;;;;13.47;9.13;;;8.10;99.90;;;;;;5030664;28;20206;-68
2021/11/19 01:11:34;;;;;;;12.30;9.23;;;8.00;99.90;;;;;;5030103;28;20235;-69
2021/11/19 01:14:04;;;;;;;15.23;10.10;;;8.00;99.90;;;;;;5040223;28;20212;-68
2021/11/19 01:16:35;;;;;;;12.67;9.20;;;8.00;99.90;;;;;;5032771;28;20207;-68
2021/11/19 01:19:07;;;;;;;12.07;8.20;;;7.90;99.90;;;;;;5037525;28;20203;-69
2021/11/19 01:21:38;;;;;;;11.73;8.37;;;8.00;99.90;;;;;;5040462;28;20325;-68
2021/11/19 01:24:05;;;;;;;9.27;8.17;;;8.00;99.90;;;;;;5042393;28;20204;-68
2021/11/19 01:26:34;;;;;;;12.00;8.43;;;7.90;99.90;;;;;;5033472;28;20293;-67
2021/11/19 01:29:05;;;;;;;10.50;8.20;;;7.90;99.90;;;;;;5034201;28;20206;-67
2021/11/19 01:31:35;;;;;;;10.57;7.77;;;7.90;99.90;;;;;;5039211;28;20202;-68
2021/11/19 01:34:04;;;;;;;10.70;8.30;;;7.90;99.90;;;;;;5038917;28;20225;-68
2021/11/19 01:36:32;;;;;;;9.97;8.17;;;7.90;99.90;;;;;;5029618;28;20210;-69
2021/11/19 01:38:58;;;;;;;10.47;8.87;;;7.90;99.90;;;;;;5033041;28;20300;-69
2021/11/19 01:41:30;;;;;;;9.40;7.80;;;7.90;99.90;;;;;;5037818;28;20206;-69
2021/11/19 01:43:57;;;;;;;9.73;8.00;;;7.90;99.90;;;;;;5041196;28;20656;-68
2021/11/19 01:46:26;;;;;;;9.03;8.07;;;7.90;99.90;;;;;;5029913;28;20214;-68
2021/11/19 01:48:55;;;;;;;10.93;8.10;;;7.90;99.90;;;;;;5043249;28;20220;-68
2021/11/19 01:51:29;;;;;;;10.90;7.90;;;7.90;99.90;;;;;;5034426;28;20206;-67
2021/11/19 01:54:00;;;;;;;9.33;7.97;;;7.90;99.90;;;;;;5030187;28;20206;-69
2021/11/19 01:56:32;;;;;;;9.57;8.50;;;8.00;99.90;;;;;;5031296;28;20234;-68
2021/11/19 01:59:02;;;;;;;10.57;7.73;;;7.90;99.90;;;;;;5040960;28;20574;-68
2021/11/19 02:01:34;;;;;;;9.10;7.30;;;7.90;99.90;;;;;;5044740;28;20202;-69
2021/11/19 02:04:05;;;;;;;8.47;7.57;;;7.90;99.90;;;;;;5042545;28;20718;-68
2021/11/19 02:06:36;;;;;;;8.30;7.30;;;8.00;99.90;;;;;;5040593;28;20224;-68
2021/11/19 02:09:09;;;;;;;8.10;6.90;;;8.00;99.90;;;;;;5030130;28;20202;-69
2021/11/19 02:11:46;;;;;;;9.80;7.97;;;8.00;99.90;;;;;;5030843;28;20719;-68
2021/11/19 02:14:27;;;;;;;8.53;6.83;;;8.00;99.90;;;;;;5040413;28;20201;-68
2021/11/19 02:16:59;;;;;;;9.90;7.40;;;8.00;99.90;;;;;;5036993;28;20210;-68
2021/11/19 02:19:30;;;;;;;8.23;6.70;;;8.00;99.90;;;;;;5039903;28;20206;-67
2021/11/19 02:22:01;;;;;;;8.80;6.57;;;8.00;99.90;;;;;;5031919;28;20240;-67
2021/11/19 02:24:31;;;;;;;10.43;6.67;;;8.00;99.90;;;;;;5052892;28;20214;-69
2021/11/19 02:27:04;;;;;;;8.10;6.57;;;8.00;99.90;;;;;;5050205;28;20651;-69
2021/11/19 02:29:35;;;;;;;9.33;6.90;;;8.00;99.90;;;;;;5033564;28;20426;-67
2021/11/19 02:32:06;;;;;;;7.60;6.27;;;8.00;99.90;;;;;;5032905;28;20206;-67
2021/11/19 02:34:33;;;;;;;8.93;6.57;;;8.00;99.90;;;;;;5045862;28;20213;-68
2021/11/19 02:37:04;;;;;;;7.67;6.50;;;8.00;99.90;;;;;;5047953;28;20206;-68
2021/11/19 02:39:35;;;;;;;7.73;6.23;;;8.00;99.90;;;;;;5033938;28;20597;-67
2021/11/19 02:42:06;;;;;;;7.10;6.03;;;8.00;99.90;;;;;;5043913;28;20225;-68
2021/11/19 02:44:35;;;;;;;6.53;5.80;;;8.00;99.90;;;;;;5047429;28;20570;-68
2021/11/19 02:47:08;;;;;;;6.60;6.00;;;8.00;99.90;;;;;;5035374;28;20726;-68
2021/11/19 02:49:36;;;;;;;6.93;6.23;;;8.00;99.90;;;;;;5047512;28;20248;-68
2021/11/19 02:52:05;;;;;;;6.97;5.63;;;8.00;99.90;;;;;;5032956;28;20634;-68
2021/11/19 02:54:33;;;;;;;7.53;6.50;;;8.00;99.90;;;;;;5034066;28;20246;-67
2021/11/19 02:57:03;;;;;;;6.50;5.50;;;8.00;99.90;;;;;;5040382;28;20230;-69
2021/11/19 02:59:30;;;;;;;6.17;5.30;;;8.00;99.90;;;;;;5033842;28;20218;-69
2021/11/19 03:01:59;;;;;;;7.40;6.00;;;8.00;99.90;;;;;;5046828;28;20225;-68
2021/11/19 03:04:30;;;;;;;6.37;5.77;;;8.00;99.90;;;;;;5045966;28;20202;-69
2021/11/19 03:06:58;;;;;;;7.23;5.80;;;8.00;99.90;;;;;;5049417;28;20199;-68
2021/11/19 03:09:29;;;;;;;6.40;5.70;;;8.10;99.90;;;;;;5042812;28;20218;-67
2021/11/19 03:11:57;;;;;;;6.27;4.70;;;8.00;99.90;;;;;;5032512;28;20234;-68
2021/11/19 03:14:25;;;;;;;5.93;5.33;;;8.00;99.90;;;;;;5039522;28;20209;-69
2021/11/19 03:16:54;;;;;;;5.93;5.40;;;8.10;99.90;;;;;;5038441;28;20206;-68
2021/11/19 03:19:21;;;;;;;5.93;5.40;;;8.00;99.90;;;;;;5033681;28;20285;-69
2021/11/19 03:21:49;;;;;;;6.10;5.37;;;8.10;99.90;;;;;;5047971;28;20296;-68
2021/11/19 03:24:18;;;;;;;6.20;5.60;;;8.00;99.90;;;;;;5044636;28;20206;-68
2021/11/19 03:26:48;;;;;;;7.10;5.73;;;8.00;99.90;;;;;;5040093;28;20836;-67
2021/11/19 03:29:15;;;;;;;6.50;5.80;;;8.00;99.90;;;;;;5036521;28;20206;-68
2021/11/19 03:31:43;;;;;;;6.73;6.03;;;8.00;99.90;;;;;;5052710;28;20209;-69
2021/11/19 03:34:11;;;;;;;8.40;6.27;;;8.00;99.90;;;;;;5046611;28;20194;-68
2021/11/19 03:36:40;;;;;;;6.67;5.40;;;8.00;99.90;;;;;;5042459;28;20210;-68
2021/11/19 03:39:07;;;;;;;6.73;5.57;;;8.00;99.90;;;;;;5035493;28;20202;-69
2021/11/19 03:41:37;;;;;;;6.67;5.97;;;8.10;99.90;;;;;;5043786;28;20206;-68
2021/11/19 03:44:08;;;;;;;6.30;5.63;;;8.10;99.90;;;;;;5047176;28;20229;-70
2021/11/19 03:46:40;;;;;;;7.20;5.43;;;8.10;99.90;;;;;;5033387;28;20671;-68
2021/11/19 03:49:07;;;;;;;6.03;5.43;;;8.10;99.90;;;;;;5041000;28;20206;-68
2021/11/19 03:51:40;;;;;;;7.00;6.30;;;8.10;99.90;;;;;;5032043;28;20199;-69
2021/11/19 03:54:08;;;;;;;6.17;5.57;;;8.10;99.90;;;;;;5032007;28;20202;-68
2021/11/19 03:56:36;;;;;;;6.50;5.90;;;8.20;99.90;;;;;;5046113;28;20235;-68
2021/11/19 03:59:05;;;;;;;6.03;5.40;;;8.10;99.90;;;;;;5037683;28;20706;-68
2021/11/19 04:01:34;;;;;;;6.30;5.70;;;8.10;99.90;;;;;;5039798;28;20217;-68
2021/11/19 04:04:02;;;;;;;6.77;5.97;;;8.20;99.90;;;;;;5041107;28;20250;-68
2021/11/19 04:06:30;;;;;;;5.93;5.33;;;8.10;99.90;;;;;;5031909;28;20202;-67
2021/11/19 04:08:57;;;;;;;6.43;5.70;;;8.10;99.90;;;;;;5035832;28;20216;-67
2021/11/19 04:11:25;;;;;;;6.73;5.93;;;8.10;99.90;;;;;;5031216;28;20703;-67
2021/11/19 04:13:53;;;;;;;5.90;5.30;;;8.10;99.90;;;;;;5034047;28;20200;-67
2021/11/19 04:16:25;;;;;;;7.50;6.33;;;8.10;99.90;;;;;;5040347;28;20697;-67
2021/11/19 04:18:52;;;;;;;6.60;5.27;;;8.10;99.90;;;;;;5040938;28;20205;-66
2021/11/19 04:21:20;;;;;;;5.67;5.17;;;8.20;99.90;;;;;;5031373;28;20299;-67
2021/11/19 04:23:49;;;;;;;5.30;4.80;;;8.20;99.90;;;;;;5040501;28;20371;-66
2021/11/19 04:26:17;;;;;;;5.83;5.23;;;8.20;99.90;;;;;;5031743;28;20210;-66
2021/11/19 04:28:46;;;;;;;5.70;5.00;;;8.20;99.90;;;;;;5031307;28;20249;-66
2021/11/19 04:31:14;;;;;;;5.70;5.20;;;8.20;99.90;;;;;;5038759;28;20245;-66
2021/11/19 04:33:43;;;;;;;6.27;5.67;;;8.20;99.90;;;;;;5036752;28;20207;-67
2021/11/19 04:36:10;;;;;;;6.57;5.77;;;8.20;99.90;;;;;;5037401;28;20213;-66
2021/11/19 04:38:37;;;;;;;6.70;6.00;;;8.30;99.90;;;;;;5051469;28;20206;-67
2021/11/19 04:41:05;;;;;;;5.87;5.27;;;8.30;99.90;;;;;;5032030;28;20206;-68
2021/11/19 04:43:35;;;;;;;5.80;5.17;;;8.30;99.90;;;;;;5033023;28;20218;-67
2021/11/19 04:46:03;;;;;;;6.40;5.80;;;8.30;99.90;;;;;;5031587;28;20725;-68
2021/11/19 04:48:32;;;;;;;6.43;5.83;;;8.30;99.90;;;;;;5039162;28;20559;-67
2021/11/19 04:51:01;;;;;;;5.47;4.97;;;8.30;99.90;;;;;;5048737;28;20209;-68
2021/11/19 04:53:28;;;;;;;6.43;5.83;;;8.40;99.90;;;;;;5032068;28;20203;-67
2021/11/19 04:55:56;;;;;;;6.90;5.60;;;8.40;99.90;;;;;;5031047;28;20210;-68
2021/11/19 04:58:23;;;;;;;6.63;5.80;;;8.40;99.90;;;;;;5044528;28;20293;-68
2021/11/19 05:00:52;;;;;;;6.37;5.77;;;8.40;99.90;;;;;;5037624;28;20199;-67
2021/11/19 05:03:20;;;;;;;8.23;6.03;;;8.40;99.90;;;;;;5044421;28;20608;-67
2021/11/19 05:05:47;;;;;;;6.10;5.50;;;8.40;99.90;;;;;;5039658;28;20213;-67
2021/11/19 05:08:16;;;;;;;7.30;6.53;;;8.40;99.90;;;;;;5030210;28;20225;-68
2021/11/19 05:10:45;;;;;;;6.67;6.07;;;8.40;99.90;;;;;;5031537;28;20576;-66
2021/11/19 05:13:13;;;;;;;6.90;6.27;;;8.40;99.90;;;;;;5030929;28;20230;-66
2021/11/19 05:15:43;;;;;;;7.50;6.80;;;8.40;99.90;;;;;;5044573;28;20211;-67
2021/11/19 05:18:10;;;;;;;7.17;6.47;;;8.50;99.90;;;;;;5036552;28;20217;-67
2021/11/19 05:20:37;;;;;;;6.70;5.87;;;8.50;99.90;;;;;;5044344;28;20198;-67
2021/11/19 05:23:05;;;;;;;7.73;6.73;;;8.50;99.90;;;;;;5038982;28;20230;-67
2021/11/19 05:25:35;;;;;;;7.70;6.90;;;8.50;99.90;;;;;;5047203;28;20214;-69
2021/11/19 05:28:03;;;;;;;7.60;6.90;;;8.60;99.90;;;;;;5041768;28;20313;-68
2021/11/19 05:30:30;;;;;;;8.03;7.00;;;8.60;99.90;;;;;;5031027;28;20210;-68
2021/11/19 05:32:57;;;;;;;8.03;7.23;;;8.60;99.90;;;;;;5031134;28;20210;-68
2021/11/19 05:35:24;;;;;;;7.93;7.13;;;8.60;99.90;;;;;;5043507;28;20212;-69
2021/11/19 05:37:51;;;;;;;8.23;7.43;;;8.70;99.90;;;;;;5031197;28;20213;-68
2021/11/19 05:40:21;;;;;;;8.47;7.57;;;8.70;99.90;;;;;;5030915;28;20214;-68
2021/11/19 05:42:51;;;;;;;8.53;7.37;;;8.70;99.90;;;;;;5031235;28;20220;-67
2021/11/19 05:45:20;;;;;;;9.07;7.80;;;8.70;99.90;;;;;;5030502;28;20215;-69
2021/11/19 05:47:48;;;;;;;8.83;7.93;;;8.70;99.90;;;;;;5038501;28;20202;-68
2021/11/19 05:50:16;;;;;;;9.63;8.63;;;8.80;99.90;;;;;;5030751;28;20203;-68
2021/11/19 05:52:43;;;;;;;10.10;8.87;;;8.70;99.90;;;;;;5030327;28;20418;-68
2021/11/19 05:55:13;;;;;;;11.53;9.50;;;8.80;99.90;;;;;;5035111;28;20202;-69
2021/11/19 05:57:40;;;;;;;10.57;9.47;;;8.80;99.90;;;;;;5034250;28;20598;-68
2021/11/19 06:00:13;;;;;;;10.50;9.40;;;8.90;99.90;;;;;;5034202;28;20207;-68
2021/11/19 06:02:39;;;;;;;9.93;8.93;;;8.80;99.90;;;;;;5042009;28;20203;-67
2021/11/19 06:05:07;;;;;;;10.10;8.67;;;8.80;99.90;;;;;;5049585;28;20216;-68
2021/11/19 06:07:34;;;;;;;10.00;8.87;;;8.90;99.90;;;;;;5045655;28;20298;-68
2021/11/19 06:10:02;;;;;;;9.27;8.33;;;8.90;99.90;;;;;;5035063;28;20278;-68
2021/11/19 06:12:36;;;;;;;9.53;8.53;;;8.90;99.90;;;;;;5033524;28;20261;-66
2021/11/19 06:15:07;;;;;;;9.00;8.10;;;8.90;99.90;;;;;;5045655;28;20217;-68
2021/11/19 06:17:38;;;;;;;9.97;8.97;;;8.90;99.90;;;;;;5044684;28;20316;-68
2021/11/19 06:20:13;;;;;;;9.57;8.67;;;8.90;99.90;;;;;;5033924;28;20210;-69
2021/11/19 06:22:42;;;;;;;10.20;9.30;;;8.90;99.90;;;;;;5040753;28;20256;-69
2021/11/19 06:25:16;;;;;;;9.07;8.17;;;8.90;99.90;;;;;;5053359;28;20230;-69
2021/11/19 06:27:43;;;;;;;10.17;9.13;;;8.90;99.90;;;;;;5051051;28;20293;-72
2021/11/19 06:30:13;;;;;;;10.83;9.70;;;8.90;99.90;;;;;;5053622;28;20237;-70
2021/11/19 06:32:41;;;;;;;10.83;9.73;;;9.00;99.90;;;;;;5040179;28;20210;-70
2021/11/19 06:35:09;;;;;;;10.07;9.07;;;9.00;99.90;;;;;;5047251;28;20209;-69
2021/11/19 06:37:36;;;;;;;10.23;9.23;;;9.00;99.90;;;;;;5042127;28;20621;-70
2021/11/19 06:40:04;;;;;;;10.10;9.10;;;9.00;99.90;;;;;;5048513;28;20651;-68
2021/11/19 06:42:31;;;;;;;10.70;9.60;;;9.00;99.90;;;;;;5046505;28;20225;-69
2021/11/19 06:44:58;;;;;;;9.97;8.97;;;9.10;99.90;;;;;;5051782;28;20674;-69
2021/11/19 06:47:25;;;;;;;12.23;9.23;;;9.10;99.90;;;;;;5047110;28;20645;-70
2021/11/19 06:49:53;;;;;;;10.17;9.17;;;9.10;99.90;;;;;;5041664;28;20225;-70
2021/11/19 06:52:20;;;;;;;10.63;9.53;;;9.10;99.90;;;;;;5034765;28;20214;-70
2021/11/19 06:54:47;;;;;;;10.57;9.57;;;9.10;99.90;;;;;;5039407;28;20326;-72
2021/11/19 06:57:14;;;;;;;9.83;8.83;;;9.10;99.90;;;;;;5050647;28;20250;-70
2021/11/19 06:59:43;;;;;;;9.97;9.07;;;9.10;99.90;;;;;;5044229;28;20288;-73
2021/11/19 07:02:12;;;;;;;9.03;8.13;;;9.20;99.90;;;;;;5042582;28;20198;-69
2021/11/19 07:04:39;;;;;;;9.07;8.17;;;9.20;99.90;;;;;;5051401;28;20229;-71
2021/11/19 07:07:09;;;;;;;10.00;8.93;;;9.20;99.90;;;;;;5045782;28;20221;-71
2021/11/19 07:09:37;;;;;;;11.83;9.80;;;9.20;99.90;;;;;;5051568;28;20209;-69
2021/11/19 07:12:06;;;;;;;11.37;10.00;;;9.20;99.90;;;;;;5043057;28;20226;-69
2021/11/19 07:14:33;;;;;;;11.33;10.23;;;9.20;99.90;;;;;;5042544;28;20198;-71
2021/11/19 07:17:04;;;;;;;11.07;9.77;;;9.20;99.90;;;;;;5039785;28;20206;-69
2021/11/19 07:19:31;;;;;;;11.53;10.30;;;9.20;99.90;;;;;;5042009;28;20206;-69
2021/11/19 07:21:58;;;;;;;12.17;10.97;;;9.20;99.90;;;;;;5044868;28;20233;-70
2021/11/19 07:24:27;;;;;;;12.37;10.17;;;9.30;99.90;;;;;;5038470;28;20237;-70
2021/11/19 07:26:54;;;;;;;15.47;11.70;;;9.30;99.90;;;;;;5041584;28;20207;-70
2021/11/19 07:29:22;;;;;;;12.87;11.37;;;9.30;99.90;;;;;;5048230;28;20206;-69
2021/11/19 07:31:49;;;;;;;11.67;10.50;;;9.10;99.90;;;;;;5048163;28;20286;-70
2021/11/19 07:34:16;;;;;;;13.27;11.80;;;9.40;99.90;;;;;;5039606;28;21088;-69
2021/11/19 07:36:43;;;;;;;11.53;10.33;;;9.50;99.90;;;;;;5040023;28;20207;-69
2021/11/19 07:39:11;;;;;;;11.47;10.37;;;9.50;99.90;;;;;;5039772;28;20444;-70
2021/11/19 07:41:40;;;;;;;12.47;11.17;;;9.50;99.90;;;;;;5044995;28;20220;-69
2021/11/19 07:44:07;;;;;;;12.40;10.83;;;9.60;99.90;;;;;;5053704;28;20221;-71
2021/11/19 07:46:34;;;;;;;11.87;10.67;;;9.60;99.90;;;;;;5043589;28;20236;-70
2021/11/19 07:49:02;;;;;;;11.67;10.50;;;9.60;99.90;;;;;;5044876;28;21039;-69
2021/11/19 07:51:31;;;;;;;11.30;9.83;;;9.60;99.90;;;;;;5042226;28;20305;-70
2021/11/19 07:53:59;;;;;;;10.10;9.10;;;9.60;99.90;;;;;;5049359;28;20213;-71
2021/11/19 07:56:30;;;;;;;10.20;9.20;;;9.70;99.90;;;;;;5037507;28;20223;-70
2021/11/19 07:59:00;;;;;;;10.47;9.47;;;9.60;99.90;;;;;;5046605;28;20225;-70
2021/11/19 08:01:27;;;;;;;9.37;8.47;;;9.70;99.90;;;;;;5045366;28;20258;-70
2021/11/19 08:03:54;;;;;;;10.50;8.57;;;9.70;99.90;;;;;;5054594;28;20225;-70
2021/11/19 08:06:23;;;;;;;9.90;8.90;;;9.70;99.90;;;;;;5045616;28;20202;-71
2021/11/19 08:08:50;;;;;;;10.53;9.30;;;9.70;99.90;;;;;;5049024;28;20221;-69
2021/11/19 08:11:17;;;;;;;9.17;8.27;;;9.70;99.90;;;;;;5053184;28;20253;-69
2021/11/19 08:13:45;;;;;;;10.47;9.43;;;9.70;99.90;;;;;;5046557;28;20194;-69
2021/11/19 08:16:14;;;;;;;10.67;9.57;;;9.70;99.90;;;;;;5043245;28;20204;-69
2021/11/19 08:18:47;;;;;;;10.33;9.30;;;9.70;99.90;;;;;;5038030;28;20664;-70
2021/11/19 08:21:14;;;;;;;10.17;8.90;;;9.70;99.90;;;;;;5038412;28;20209;-69
2021/11/19 08:23:43;;;;;;;12.10;10.33;;;9.70;99.90;;;;;;5043849;28;20677;-69
2021/11/19 08:26:14;;;;;;;11.70;10.50;;;9.70;99.90;;;;;;5047431;28;20292;-69
2021/11/19 08:28:42;;;;;;;13.30;11.90;;;9.80;99.90;;;;;;5042957;28;20206;-70
2021/11/19 08:31:12;;;;;;;11.50;10.27;;;9.80;99.90;;;;;;5052304;28;20197;-70
2021/11/19 08:33:41;;;;;;;11.80;10.60;;;9.80;99.90;;;;;;5048691;28;20213;-71
2021/11/19 08:36:08;;;;;;;10.80;9.50;;;9.80;99.90;;;;;;5048519;28;20210;-71
2021/11/19 08:38:36;;;;;;;10.83;9.73;;;9.90;99.90;;;;;;5050212;28;20234;-70
2021/11/19 08:41:04;;;;;;;10.13;9.20;;;9.90;99.90;;;;;;5049464;28;20217;-70
2021/11/19 08:43:34;;;;;;;9.80;8.67;;;9.90;99.90;;;;;;5041113;28;20202;-70
2021/11/19 08:46:04;;;;;;;9.50;8.60;;;9.90;99.90;;;;;;5051039;28;20252;-71
2021/11/19 08:48:33;;;;;;;9.43;8.43;;;10.00;99.90;;;;;;5051639;28;20397;-70
2021/11/19 08:51:05;;;;;;;9.37;8.47;;;10.00;99.90;;;;;;5039102;28;20264;-70
2021/11/19 08:53:31;;;;;;;11.00;8.83;;;10.00;99.90;;;;;;5031962;28;20557;-70
2021/11/19 08:56:01;;;;;;;9.17;8.20;;;10.00;99.90;;;;;;5034053;28;20200;-70
2021/11/19 08:58:32;;;;;;;9.40;7.60;;;10.00;99.90;;;;;;5045489;28;20641;-72
2021/11/19 09:01:01;;;;;;;8.63;7.73;;;10.00;99.90;;;;;;5033868;28;20659;-71
2021/11/19 09:03:29;;;;;;;8.07;7.30;;;10.00;99.90;;;;;;5045852;28;20325;-70
2021/11/19 09:05:57;;;;;;;8.43;7.63;;;10.00;99.90;;;;;;5036753;28;20226;-70
2021/11/19 09:08:28;;;;;;;7.87;7.17;;;10.00;99.90;;;;;;5050542;28;20202;-70
2021/11/19 09:10:57;;;;;;;8.07;7.27;;;10.00;99.90;;;;;;5047017;28;20242;-70
2021/11/19 09:13:24;;;;;;;8.63;7.83;;;10.10;99.90;;;;;;5045312;28;20237;-70
2021/11/19 09:15:52;;;;;;;8.43;7.50;;;10.10;99.90;;;;;;5039251;28;20288;-70
2021/11/19 09:18:27;;;;;;;8.83;7.80;;;10.10;99.90;;;;;;5050046;28;20288;-70
2021/11/19 09:21:15;;;;;;;8.87;7.97;;;10.00;99.90;;;;;;5047235;28;20210;-70
2021/11/19 09:23:49;;;;;;;8.77;7.83;;;10.10;99.90;;;;;;5034238;28;20205;-71
2021/11/19 09:26:20;;;;;;;9.93;7.47;;;10.10;99.90;;;;;;5048375;28;20205;-70
2021/11/19 09:28:49;;;;;;;8.07;7.27;;;10.10;99.90;;;;;;5051445;28;20198;-71
2021/11/19 09:31:19;;;;;;;8.57;7.53;;;10.10;99.90;;;;;;5050190;28;20292;-70
2021/11/19 09:33:48;;;;;;;8.43;7.50;;;10.20;99.90;;;;;;5050151;28;20581;-70
2021/11/19 09:36:16;;;;;;;9.73;6.83;;;10.10;99.90;;;;;;5040233;28;20238;-70
2021/11/19 09:38:45;;;;;;;9.70;8.70;;;10.20;99.90;;;;;;5043952;28;20381;-70
2021/11/19 09:41:44;;;;;;;7.47;6.77;;;10.20;99.90;;;;;;5042757;28;20206;-69
2021/11/19 09:44:54;;;;;;;8.20;7.20;;;10.20;99.90;;;;;;5030445;28;20223;-70
2021/11/19 09:47:49;;;;;;;6.77;6.07;;;10.20;99.90;;;;;;5042638;28;20296;-69
2021/11/19 09:50:41;;;;;;;7.63;6.83;;;10.30;99.90;;;;;;5030863;28;20198;-69
2021/11/19 09:54:02;;;;;;;6.93;6.13;;;10.30;99.90;;;;;;5032136;28;20681;-69
2021/11/19 09:56:43;;;;;;;7.03;6.33;;;10.30;99.90;;;;;;4996930;28;20309;-69
2021/11/19 09:59:20;;;;;;;6.43;5.80;;;10.30;99.90;;;;;;5043095;28;20208;-70
2021/11/19 10:02:22;;;;;;;7.30;6.60;;;10.40;99.90;;;;;;5041172;28;20190;-69
2021/11/19 10:05:22;;;;;;;8.33;6.17;;;10.40;99.90;;;;;;5038230;28;20217;-70
2021/11/19 10:08:02;;;;;;;9.43;8.07;;;10.40;99.90;;;;;;5041690;28;20202;-69
2021/11/19 10:10:56;;;;;;;7.17;6.47;;;10.40;99.90;;;;;;5044162;28;20228;-69
2021/11/19 10:13:37;;;;;;;6.40;5.80;;;10.40;99.90;;;;;;5042863;28;20942;-69
2021/11/19 10:16:16;;;;;;;7.50;6.60;;;10.40;99.90;;;;;;5043831;28;20213;-69
2021/11/19 10:18:50;;;;;;;7.90;7.10;;;10.40;99.90;;;;;;5047740;28;20236;-69
2021/11/19 10:21:19;;;;;;;6.90;6.17;;;10.50;99.90;;;;;;5046149;28;20206;-70
2021/11/19 10:23:48;;;;;;;7.27;6.57;;;10.50;99.90;;;;;;5049013;28;20220;-71
2021/11/19 10:26:20;;;;;;;7.67;6.87;;;10.50;99.90;;;;;;5042068;28;20214;-71
2021/11/19 10:28:57;;;;;;;6.73;5.97;;;10.50;99.90;;;;;;5042791;28;20202;-71
2021/11/19 10:31:27;;;;;;;6.53;5.93;;;10.50;99.90;;;;;;5037847;28;20554;-72
2021/11/19 10:34:06;;;;;;;6.73;5.83;;;10.50;99.90;;;;;;5043520;28;20567;-70
2021/11/19 10:36:39;;;;;;;7.17;6.23;;;10.50;99.90;;;;;;5042540;28;20205;-71
2021/11/19 10:39:43;;;;;;;6.70;5.33;;;10.60;99.90;;;;;;5034294;28;20569;-71
2021/11/19 10:42:51;;;;;;;6.57;5.97;;;10.60;99.90;;;;;;5049925;28;20212;-70
2021/11/19 10:45:53;;;;;;;6.03;5.27;;;10.60;99.90;;;;;;5047941;28;20240;-69
2021/11/19 10:49:00;;;;;;;6.47;5.93;;;10.60;99.90;;;;;;5041436;28;20221;-68
2021/11/19 10:52:13;;;;;;;6.10;5.20;;;10.60;99.90;;;;;;5040352;28;20650;-69
2021/11/19 10:55:17;;;;;;;4.73;4.20;;;10.60;99.90;;;;;;5035535;28;20202;-68
2021/11/19 10:58:15;;;;;;;5.37;4.87;;;10.60;99.90;;;;;;5053785;28;20229;-70
2021/11/19 11:00:56;;;;;;;5.40;4.90;;;10.60;99.90;;;;;;5041284;28;20263;-69
2021/11/19 11:03:25;;;;;;;6.40;5.00;;;10.60;99.90;;;;;;5053390;28;20206;-69
2021/11/19 11:05:57;;;;;;;5.83;5.23;;;10.60;99.90;;;;;;5045442;28;20245;-71
2021/11/19 11:08:27;;;;;;;6.07;5.47;;;10.60;99.90;;;;;;5045361;28;20232;-70
2021/11/19 11:10:57;;;;;;;6.77;6.07;;;10.70;99.90;;;;;;5035648;28;20293;-70
2021/11/19 11:13:35;;;;;;;6.80;6.10;;;10.70;99.90;;;;;;5040231;28;20592;-70
2021/11/19 11:16:07;;;;;;;6.07;5.47;;;10.70;99.90;;;;;;5042638;28;20203;-69
2021/11/19 11:18:36;;;;;;;6.37;5.70;;;10.70;99.90;;;;;;5032507;28;20202;-70
2021/11/19 11:21:09;;;;;;;6.97;6.37;;;10.70;99.90;;;;;;5040567;28;20577;-70
2021/11/19 11:23:38;;;;;;;7.27;6.53;;;10.70;99.90;;;;;;5037102;28;20217;-71
2021/11/19 11:26:12;;;;;;;8.07;6.87;;;10.70;99.90;;;;;;5052798;28;20230;-70
2021/11/19 11:28:48;;;;;;;7.87;7.17;;;10.70;99.90;;;;;;5045754;28;20256;-71
2021/11/19 11:31:35;;;;;;;8.57;6.93;;;10.80;99.90;;;;;;5052139;28;20198;-71
2021/11/19 11:34:12;;;;;;;7.97;7.17;;;10.80;99.90;;;;;;5039218;28;20213;-71
2021/11/19 11:36:42;;;;;;;8.23;6.87;;;10.80;99.90;;;;;;5053399;28;20292;-68
2021/11/19 11:39:13;;;;;;;8.77;7.87;;;10.90;99.90;;;;;;5053570;28;20229;-69
2021/11/19 11:41:55;;;;;;;7.43;6.73;;;10.90;99.90;;;;;;5052760;28;20201;-71
2021/11/19 11:44:25;;;;;;;7.60;6.90;;;10.90;99.90;;;;;;5044871;28;20204;-70
2021/11/19 11:47:05;;;;;;;8.63;6.80;;;10.90;99.90;;;;;;5054554;28;20208;-70
2021/11/19 11:49:46;;;;;;;8.07;6.33;;;10.90;99.90;;;;;;5037863;28;20289;-68
2021/11/19 11:52:34;;;;;;;7.10;6.40;;;10.90;99.90;;;;;;5039386;28;20702;-69
2021/11/19 11:55:28;;;;;;;6.43;5.87;;;10.90;99.90;;;;;;5044508;28;20241;-68
2021/11/19 11:58:17;;;;;;;7.50;6.67;;;11.00;99.90;;;;;;5036682;28;20248;-68
2021/11/19 12:00:53;;;;;;;6.23;5.73;;;11.00;99.90;;;;;;5032528;28;20213;-69
2021/11/19 12:03:29;;;;;;;7.23;6.07;;;11.00;99.90;;;;;;5033831;28;20216;-69
2021/11/19 12:06:10;;;;;;;6.60;6.00;;;11.10;99.90;;;;;;5045836;28;20283;-70
2021/11/19 12:09:01;;;;;;;8.50;5.83;;;11.00;99.90;;;;;;5052486;28;20210;-69
2021/11/19 12:12:02;;;;;;;6.17;5.57;;;11.00;99.90;;;;;;5039045;28;20210;-68
2021/11/19 12:14:40;;;;;;;5.77;5.13;;;11.10;99.90;;;;;;5039463;28;20212;-70
2021/11/19 12:17:17;;;;;;;5.53;5.03;;;11.10;99.90;;;;;;5044366;28;20209;-69
2021/11/19 12:19:49;;;;;;;5.80;5.20;;;11.10;99.90;;;;;;5036703;28;20216;-68
2021/11/19 12:22:20;;;;;;;5.87;5.13;;;11.20;99.90;;;;;;5034173;28;20322;-67
2021/11/19 12:24:53;;;;;;;5.40;4.90;;;11.10;99.90;;;;;;5047140;28;20217;-69
2021/11/19 12:27:36;;;;;;;5.37;4.67;;;11.20;99.90;;;;;;5050527;28;20293;-69
2021/11/19 12:30:20;;;;;;;4.97;4.57;;;11.20;99.90;;;;;;5040859;28;20214;-69
2021/11/19 12:32:52;;;;;;;4.87;4.37;;;11.20;99.90;;;;;;5040331;28;20181;-69
2021/11/19 12:35:25;;;;;;;4.10;3.63;;;11.20;99.90;;;;;;5052114;28;20198;-68
2021/11/19 12:38:00;;;;;;;4.37;3.97;;;11.20;99.90;;;;;;5043557;28;20206;-68
2021/11/19 12:40:35;;;;;;;5.50;3.80;;;11.20;99.90;;;;;;5047810;28;20682;-69
2021/11/19 12:43:17;;;;;;;6.23;3.83;;;11.30;99.90;;;;;;5035020;28;20293;-68
2021/11/19 12:45:49;;;;;;;4.00;3.60;;;11.30;99.90;;;;;;5047461;28;20220;-69
2021/11/19 12:49:03;;;;;;;3.63;3.30;;;11.30;99.90;;;;;;5045961;28;20229;-69
2021/11/19 12:51:34;;;;;;;5.00;3.17;;;11.30;99.90;;;;;;5015080;28;20206;-69
2021/11/19 12:54:15;;;;;;;4.43;3.70;;;11.30;99.90;;;;;;5034127;28;20213;-68
2021/11/19 12:57:27;;;;;;;4.10;3.70;;;11.40;99.90;;;;;;5032420;28;20248;-69
2021/11/19 12:59:59;;;;;;;3.80;3.40;;;11.40;99.90;;;;;;5005246;28;20260;-70
2021/11/19 13:02:33;;;;;;;4.33;3.37;;;11.50;99.90;;;;;;5038101;28;20237;-67
2021/11/19 13:05:24;;;;;;;4.80;3.47;;;11.40;99.90;;;;;;5043001;28;20700;-69
2021/11/19 13:08:10;;;;;;;3.73;3.43;;;11.40;99.90;;;;;;5044667;28;20659;-68
2021/11/19 13:10:50;;;;;;;5.07;3.80;;;11.40;99.90;;;;;;5039435;28;20197;-69
2021/11/19 13:13:38;;;;;;;4.53;3.97;;;11.40;99.90;;;;;;5051020;28;20244;-67
2021/11/19 13:16:32;;;;;;;3.73;3.43;;;11.40;99.90;;;;;;5038401;28;20202;-68
2021/11/19 13:19:01;;;;;;;4.77;4.30;;;11.50;99.90;;;;;;5033622;28;20206;-71